Time;durP1;ratioP1;P1;durP2;ratioP2;P2;SDS_P1;SDS_P2;PMS_P1;PMS_P2;Temp;Humidity;BMP_temperature;BMP_pressure;BME280_temperature;BME280_humidity;BME280_pressure;Samples;Min_cycle;Max_cycle;Signal;HPM_P1;HPM_P2
2023/09/26 00:01:28;;;;;;;4.72;3.38;;;;;;;11.58;100.00;97951.53;4981710;28;20404;-82
2023/09/26 00:03:54;;;;;;;4.68;3.20;;;;;;;11.57;100.00;97951.78;4985540;28;20437;-81
2023/09/26 00:06:20;;;;;;;6.03;3.35;;;;;;;11.54;100.00;97953.06;4983350;28;20970;-83
2023/09/26 00:08:47;;;;;;;3.78;3.17;;;;;;;11.55;100.00;97949.38;4980860;28;20431;-81
2023/09/26 00:11:15;;;;;;;4.30;3.37;;;;;;;11.53;100.00;97950.66;4981011;28;20396;-80
2023/09/26 00:13:43;;;;;;;4.07;3.35;;;;;;;11.50;100.00;97941.31;4981721;28;20455;-81
2023/09/26 00:16:09;;;;;;;6.40;3.60;;;;;;;11.44;100.00;97944.94;4980795;28;20547;-81
2023/09/26 00:18:36;;;;;;;4.68;3.58;;;;;;;11.40;100.00;97946.50;4979281;28;20467;-80
2023/09/26 00:21:04;;;;;;;5.55;3.60;;;;;;;11.36;100.00;97945.34;4980075;28;20407;-80
2023/09/26 00:23:30;;;;;;;5.97;3.85;;;;;;;11.34;100.00;97938.72;4979385;28;20416;-79
2023/09/26 00:25:57;;;;;;;4.03;3.37;;;;;;;11.32;100.00;97936.31;4978166;28;20440;-81
2023/09/26 00:28:25;;;;;;;3.92;3.20;;;;;;;11.31;100.00;97941.84;4976528;28;20400;-80
2023/09/26 00:30:51;;;;;;;3.58;3.20;;;;;;;11.31;100.00;97936.53;4976059;28;20470;-81
2023/09/26 00:33:18;;;;;;;4.60;3.60;;;;;;;11.30;100.00;97942.88;4975854;28;20404;-81
2023/09/26 00:35:44;;;;;;;4.28;3.28;;;;;;;11.29;100.00;97944.72;4974969;28;20396;-80
2023/09/26 00:38:10;;;;;;;3.83;3.10;;;;;;;11.25;100.00;97944.41;4978614;28;20418;-79
2023/09/26 00:40:39;;;;;;;4.50;3.50;;;;;;;11.23;100.00;97948.34;4976619;28;20840;-80
2023/09/26 00:43:05;;;;;;;3.70;3.13;;;;;;;11.17;100.00;97947.47;4976540;28;20434;-80
2023/09/26 00:45:33;;;;;;;4.40;3.08;;;;;;;11.14;100.00;97941.84;4976695;28;20412;-80
2023/09/26 00:47:59;;;;;;;3.70;3.10;;;;;;;11.11;100.00;97939.69;4975916;28;20400;-81
2023/09/26 00:50:26;;;;;;;3.90;3.30;;;;;;;11.12;100.00;97944.75;4975356;28;21130;-80
2023/09/26 00:52:53;;;;;;;4.10;3.17;;;;;;;11.10;100.00;97935.41;4976241;28;20410;-80
2023/09/26 00:55:24;;;;;;;6.32;3.38;;;;;;;11.07;100.00;97938.53;4976367;28;20503;-80
2023/09/26 00:57:50;;;;;;;4.30;3.28;;;;;;;11.03;100.00;97938.22;4976623;28;20430;-83
2023/09/26 01:00:19;;;;;;;3.72;3.42;;;;;;;11.00;100.00;97936.06;4977373;28;20439;-80
2023/09/26 01:02:47;;;;;;;3.75;3.30;;;;;;;10.99;100.00;97941.59;4976143;28;20409;-82
2023/09/26 01:05:13;;;;;;;4.20;3.40;;;;;;;10.96;100.00;97939.44;4982339;28;20400;-82
2023/09/26 01:07:40;;;;;;;4.68;3.55;;;;;;;10.91;100.00;97940.13;4978156;28;20408;-81
2023/09/26 01:10:10;;;;;;;4.63;3.25;;;;;;;10.90;100.00;97949.13;4978654;28;20451;-80
2023/09/26 01:12:38;;;;;;;3.25;2.95;;;;;;;10.90;100.00;97945.69;4977896;28;20734;-81
2023/09/26 01:15:06;;;;;;;3.43;3.13;;;;;;;10.88;100.00;97942.47;4977800;28;20418;-81
2023/09/26 01:17:32;;;;;;;5.53;3.65;;;;;;;10.81;100.00;97939.97;4977362;28;20412;-81
2023/09/26 01:20:00;;;;;;;4.82;3.70;;;;;;;10.79;100.00;97940.22;4976628;28;20408;-81
2023/09/26 01:22:28;;;;;;;3.65;3.20;;;;;;;10.80;100.00;97933.06;4978577;28;20604;-81
2023/09/26 01:24:57;;;;;;;4.78;3.70;;;;;;;10.80;100.00;97938.38;4979041;28;20431;-82
2023/09/26 01:27:23;;;;;;;4.20;3.40;;;;;;;10.79;100.00;97934.09;4979987;28;20407;-80
2023/09/26 01:29:51;;;;;;;3.40;3.05;;;;;;;10.76;100.00;97932.72;4980185;28;20431;-81
2023/09/26 01:32:17;;;;;;;3.85;3.20;;;;;;;10.73;100.00;97935.88;4980545;28;20443;-82
2023/09/26 01:34:43;;;;;;;3.60;3.05;;;;;;;10.72;100.00;97931.59;4981209;28;20400;-82
2023/09/26 01:37:09;;;;;;;5.20;3.10;;;;;;;10.67;100.00;97931.53;4982447;28;20408;-79
2023/09/26 01:39:36;;;;;;;3.58;3.20;;;;;;;10.66;100.00;97931.75;4987019;28;20415;-80
2023/09/26 01:42:03;;;;;;;3.88;3.35;;;;;;;10.66;100.00;97932.56;4989395;28;20403;-80
2023/09/26 01:44:29;;;;;;;3.63;3.10;;;;;;;10.66;100.00;97935.22;4989057;28;20407;-79
2023/09/26 01:46:55;;;;;;;3.47;2.80;;;;;;;10.67;100.00;97942.13;4988909;28;20426;-80
2023/09/26 01:49:22;;;;;;;3.83;3.20;;;;;;;10.65;100.00;97938.91;4980009;28;20649;-81
2023/09/26 01:51:48;;;;;;;3.85;3.33;;;;;;;10.63;100.00;97932.22;4980673;28;20443;-80
2023/09/26 01:54:14;;;;;;;3.38;3.03;;;;;;;10.59;100.00;97931.91;4982079;28;20408;-80
2023/09/26 01:56:40;;;;;;;3.40;3.00;;;;;;;10.59;100.00;97931.09;4981592;28;20396;-80
2023/09/26 01:59:08;;;;;;;3.95;2.95;;;;;;;10.58;100.00;97927.66;4980438;28;20404;-80
2023/09/26 02:01:34;;;;;;;3.17;2.88;;;;;;;10.60;100.00;97922.13;4980701;28;20404;-80
2023/09/26 02:04:00;;;;;;;3.30;3.00;;;;;;;10.57;100.00;97919.94;4980198;28;20412;-80
2023/09/26 02:06:26;;;;;;;3.88;3.40;;;;;;;10.53;100.00;97916.94;4981122;28;20404;-82
2023/09/26 02:08:52;;;;;;;5.30;3.77;;;;;;;10.50;100.00;97924.59;4978619;28;20807;-81
2023/09/26 02:11:19;;;;;;;3.70;3.38;;;;;;;10.50;100.00;97924.59;4981663;28;20471;-81
2023/09/26 02:13:45;;;;;;;5.03;3.53;;;;;;;10.50;100.00;97920.09;4981504;28;20407;-81
2023/09/26 02:16:13;;;;;;;3.33;3.03;;;;;;;10.51;100.00;97926.19;4982003;28;20415;-79
2023/09/26 02:18:39;;;;;;;3.72;3.33;;;;;;;10.50;100.00;97914.78;4982167;28;20411;-80
2023/09/26 02:21:05;;;;;;;3.60;3.30;;;;;;;10.48;100.00;97912.38;4982018;28;20432;-82
2023/09/26 02:23:32;;;;;;;3.20;2.90;;;;;;;10.47;100.00;97916.06;4980967;28;20614;-80
2023/09/26 02:25:58;;;;;;;3.40;3.10;;;;;;;10.45;100.00;97918.13;4981183;28;20400;-80
2023/09/26 02:28:24;;;;;;;3.45;3.15;;;;;;;10.42;100.00;97918.63;4981517;28;20483;-81
2023/09/26 02:30:50;;;;;;;3.30;3.00;;;;;;;10.41;100.00;97919.66;4980750;28;20454;-81
2023/09/26 02:33:18;;;;;;;3.58;3.08;;;;;;;10.38;100.00;97916.66;4980757;28;20426;-80
2023/09/26 02:35:44;;;;;;;4.30;3.80;;;;;;;10.35;100.00;97910.03;4981204;28;20396;-79
2023/09/26 02:38:10;;;;;;;3.58;3.22;;;;;;;10.33;100.00;97914.75;4982240;28;20488;-80
2023/09/26 02:40:36;;;;;;;6.28;3.78;;;;;;;10.31;100.00;97903.59;4981514;28;20432;-81
2023/09/26 02:43:02;;;;;;;4.10;3.60;;;;;;;10.33;100.00;97903.34;4981833;28;20908;-80
2023/09/26 02:45:30;;;;;;;5.32;3.38;;;;;;;10.32;100.00;97899.91;4983390;28;20426;-81
2023/09/26 02:47:57;;;;;;;3.72;3.10;;;;;;;10.32;100.00;97896.44;4980845;28;20459;-82
2023/09/26 02:50:24;;;;;;;3.70;3.30;;;;;;;10.32;100.00;97907.03;4979556;28;20918;-81
2023/09/26 02:52:50;;;;;;;4.03;2.88;;;;;;;10.32;100.00;97899.91;4979390;28;20400;-80
2023/09/26 02:55:17;;;;;;;3.47;3.10;;;;;;;10.30;100.00;97899.31;4978346;28;20411;-81
2023/09/26 02:57:43;;;;;;;3.50;3.20;;;;;;;10.27;100.00;97907.75;4978268;28;20392;-81
2023/09/26 03:00:19;;;;;;;3.63;3.03;;;;;;;10.27;100.00;97901.66;4977991;28;20432;-81
2023/09/26 03:02:45;;;;;;;4.50;3.90;;;;;;;10.22;100.00;97901.56;4978521;28;20455;-80
2023/09/26 03:05:12;;;;;;;3.97;3.58;;;;;;;10.20;100.00;97898.34;4979012;28;20404;-81
2023/09/26 03:07:40;;;;;;;4.40;3.47;;;;;;;10.16;100.00;97897.97;4979075;28;20548;-81
2023/09/26 03:10:08;;;;;;;4.77;3.27;;;;;;;10.18;100.00;97903.06;4978965;28;20463;-80
2023/09/26 03:12:34;;;;;;;4.22;3.55;;;;;;;10.16;100.00;97900.63;4979251;28;20499;-80
2023/09/26 03:15:00;;;;;;;4.28;3.28;;;;;;;10.17;100.00;97893.50;4980075;28;20416;-80
2023/09/26 03:17:28;;;;;;;3.80;3.20;;;;;;;10.16;100.00;97900.63;4981051;28;20443;-80
2023/09/26 03:19:54;;;;;;;3.40;3.10;;;;;;;10.17;100.00;97896.97;4980170;28;20412;-80
2023/09/26 03:22:20;;;;;;;4.90;3.40;;;;;;;10.16;100.00;97895.31;4981770;28;20757;-81
2023/09/26 03:24:47;;;;;;;4.07;2.95;;;;;;;10.15;100.00;97901.66;4980757;28;20813;-81
2023/09/26 03:27:14;;;;;;;5.40;3.25;;;;;;;10.14;100.00;97904.56;4981313;28;20889;-80
2023/09/26 03:29:40;;;;;;;3.97;2.97;;;;;;;10.12;100.00;97904.78;4981623;28;20451;-81
2023/09/26 03:32:06;;;;;;;4.07;3.27;;;;;;;10.10;100.00;97901.56;4981177;28;20486;-82
2023/09/26 03:34:32;;;;;;;3.15;2.88;;;;;;;10.10;100.00;97912.16;4979063;28;20404;-82
2023/09/26 03:36:58;;;;;;;3.72;3.05;;;;;;;10.06;100.00;97909.19;4984096;28;20447;-80
2023/09/26 03:39:24;;;;;;;3.63;2.95;;;;;;;10.07;100.00;97904.69;4976254;28;20404;-80
2023/09/26 03:41:52;;;;;;;2.95;2.63;;;;;;;10.05;100.00;97902.28;4975156;28;20887;-79
2023/09/26 03:44:18;;;;;;;3.30;3.00;;;;;;;10.03;100.00;97895.63;4976091;28;20412;-83
2023/09/26 03:46:44;;;;;;;3.75;2.92;;;;;;;10.03;100.00;97893.78;4976116;28;20396;-81
2023/09/26 03:49:10;;;;;;;4.20;3.10;;;;;;;10.01;100.00;97898.47;4975922;28;20809;-82
2023/09/26 03:51:36;;;;;;;5.55;3.70;;;;;;;9.98;100.00;97895.53;4974485;28;20404;-82
2023/09/26 03:54:02;;;;;;;3.80;3.42;;;;;;;9.93;100.00;97900.69;4974197;28;20400;-79
2023/09/26 03:56:28;;;;;;;3.58;3.17;;;;;;;9.93;100.00;97892.75;4974366;28;20408;-82
2023/09/26 03:58:57;;;;;;;5.13;3.40;;;;;;;9.95;100.00;97903.91;4976216;28;20404;-81
2023/09/26 04:01:23;;;;;;;4.57;3.30;;;;;;;9.95;100.00;97898.63;4976235;28;20515;-80
2023/09/26 04:03:49;;;;;;;5.57;3.45;;;;;;;9.95;100.00;97895.97;4977291;28;20397;-81
2023/09/26 04:06:15;;;;;;;4.82;3.30;;;;;;;9.95;100.00;97902.06;4976530;28;20780;-82
2023/09/26 04:08:42;;;;;;;3.67;3.17;;;;;;;9.96;100.00;97897.59;4975857;28;20412;-82
2023/09/26 04:11:13;;;;;;;4.45;3.65;;;;;;;9.97;100.00;97899.19;4975939;28;20420;-81
2023/09/26 04:13:39;;;;;;;4.03;3.22;;;;;;;9.98;100.00;97898.16;4975538;28;20403;-82
2023/09/26 04:16:07;;;;;;;4.20;3.30;;;;;;;9.98;100.00;97903.44;4976176;28;20396;-81
2023/09/26 04:18:33;;;;;;;5.43;3.97;;;;;;;9.95;100.00;97898.63;4975054;28;20404;-82
2023/09/26 04:21:02;;;;;;;5.28;3.83;;;;;;;9.94;100.00;97902.31;4974924;28;20507;-82
2023/09/26 04:23:29;;;;;;;3.92;3.47;;;;;;;9.91;100.00;97898.31;4974580;28;20443;-82
2023/09/26 04:25:55;;;;;;;4.72;3.85;;;;;;;9.89;100.00;97884.50;4974896;28;20916;-81
2023/09/26 04:28:21;;;;;;;4.38;3.67;;;;;;;9.88;100.00;97884.72;4974345;28;20921;-81
2023/09/26 04:30:47;;;;;;;4.30;3.78;;;;;;;9.88;100.00;97888.19;4974817;28;20419;-83
2023/09/26 04:33:16;;;;;;;4.10;3.70;;;;;;;9.87;100.00;97899.78;4974582;28;20396;-81
2023/09/26 04:35:43;;;;;;;5.50;4.15;;;;;;;9.85;100.00;97880.69;4975158;28;20407;-81
2023/09/26 04:38:09;;;;;;;5.10;4.20;;;;;;;9.84;100.00;97884.41;4973825;28;20459;-80
2023/09/26 04:40:35;;;;;;;5.10;3.80;;;;;;;9.82;100.00;97893.59;4973096;28;20463;-80
2023/09/26 04:43:03;;;;;;;4.38;3.92;;;;;;;9.81;100.00;97882.22;4974821;28;20400;-82
2023/09/26 04:45:30;;;;;;;6.00;4.30;;;;;;;9.83;100.00;97885.44;4976289;28;20524;-83
2023/09/26 04:47:58;;;;;;;5.00;4.20;;;;;;;9.82;100.00;97889.13;4975096;28;20405;-82
2023/09/26 04:50:26;;;;;;;5.25;4.68;;;;;;;9.83;100.00;97887.28;4975271;28;20423;-83
2023/09/26 04:52:52;;;;;;;8.25;5.28;;;;;;;9.80;100.00;97885.91;4976368;28;20419;-80
2023/09/26 04:55:19;;;;;;;6.90;4.95;;;;;;;9.78;100.00;97885.31;4979261;28;20885;-83
2023/09/26 04:57:45;;;;;;;5.73;4.60;;;;;;;9.76;100.00;97887.41;4974888;28;20404;-81
2023/09/26 05:00:17;;;;;;;5.38;4.60;;;;;;;9.75;100.00;97888.44;4975601;28;20709;-83
2023/09/26 05:02:43;;;;;;;5.43;4.50;;;;;;;9.73;100.00;97887.06;4979658;28;20436;-84
2023/09/26 05:05:11;;;;;;;5.97;4.78;;;;;;;9.73;100.00;97895.78;4980445;28;20408;-81
2023/09/26 05:07:42;;;;;;;5.82;4.63;;;;;;;9.71;100.00;97887.28;4980974;28;20420;-79
2023/09/26 05:10:09;;;;;;;6.77;5.33;;;;;;;9.71;100.00;97884.66;4982087;28;20424;-80
2023/09/26 05:12:40;;;;;;;5.80;4.97;;;;;;;9.69;100.00;97881.44;4983490;28;20424;-80
2023/09/26 05:15:09;;;;;;;6.75;5.50;;;;;;;9.69;100.00;97890.19;4985013;28;20412;-79
2023/09/26 05:17:35;;;;;;;6.15;5.35;;;;;;;9.68;100.00;97885.13;4986263;28;20400;-80
2023/09/26 05:20:02;;;;;;;8.65;5.88;;;;;;;9.65;100.00;97888.22;4985303;28;20411;-81
2023/09/26 05:22:28;;;;;;;6.88;5.72;;;;;;;9.66;100.00;97893.28;4986095;28;20408;-80
2023/09/26 05:24:56;;;;;;;5.85;5.15;;;;;;;9.67;100.00;97902.03;4985953;28;20414;-80
2023/09/26 05:27:22;;;;;;;6.80;5.47;;;;;;;9.65;100.00;97898.78;4985887;28;20408;-80
2023/09/26 05:29:48;;;;;;;9.95;5.32;;;;;;;9.66;100.00;97905.69;4986903;28;20586;-79
2023/09/26 05:32:16;;;;;;;7.10;5.10;;;;;;;9.65;100.00;97915.47;4986854;28;21630;-80
2023/09/26 05:34:42;;;;;;;6.97;5.38;;;;;;;9.64;100.00;97911.22;4986124;28;20428;-80
2023/09/26 05:37:09;;;;;;;8.35;5.80;;;;;;;9.62;100.00;97910.63;4986692;28;20668;-80
2023/09/26 05:39:35;;;;;;;10.20;6.97;;;;;;;9.60;100.00;97906.63;4986430;28;20415;-79
2023/09/26 05:42:03;;;;;;;6.68;5.55;;;;;;;9.60;100.00;97904.78;4986432;28;20408;-80
2023/09/26 05:44:29;;;;;;;7.80;5.72;;;;;;;9.63;100.00;97906.94;4986822;28;20407;-79
2023/09/26 05:46:56;;;;;;;6.40;5.68;;;;;;;9.66;100.00;97908.34;4986388;28;21151;-80
2023/09/26 05:49:22;;;;;;;7.05;5.15;;;;;;;9.66;100.00;97903.84;4986911;28;20424;-81
2023/09/26 05:51:48;;;;;;;7.85;5.70;;;;;;;9.67;100.00;97902.03;4986459;28;20497;-80
2023/09/26 05:54:14;;;;;;;6.70;5.53;;;;;;;9.66;100.00;97903.06;4985926;28;20415;-80
2023/09/26 05:56:40;;;;;;;7.75;6.00;;;;;;;9.65;100.00;97902.25;4986152;28;20411;-80
2023/09/26 05:59:08;;;;;;;6.90;5.97;;;;;;;9.69;100.00;97902.59;4986721;28;20396;-79
2023/09/26 06:01:34;;;;;;;7.88;5.43;;;;;;;9.70;100.00;97899.69;4987609;28;20772;-80
2023/09/26 06:04:00;;;;;;;5.72;4.88;;;;;;;9.73;100.00;97895.78;4987381;28;20423;-80
2023/09/26 06:06:26;;;;;;;6.22;5.47;;;;;;;9.73;100.00;97902.94;4985889;28;20403;-81
2023/09/26 06:08:52;;;;;;;5.75;5.03;;;;;;;9.75;100.00;97906.16;4985555;28;20683;-80
2023/09/26 06:11:18;;;;;;;6.32;4.63;;;;;;;9.76;100.00;97899.81;4983951;28;20521;-79
2023/09/26 06:13:45;;;;;;;7.50;5.17;;;;;;;9.78;100.00;97895.09;4984035;28;20904;-80
2023/09/26 06:16:13;;;;;;;7.63;5.67;;;;;;;9.81;100.00;97892.00;4984018;28;20404;-79
2023/09/26 06:18:39;;;;;;;5.97;5.22;;;;;;;9.83;100.00;97893.38;4981989;28;20419;-80
2023/09/26 06:21:06;;;;;;;5.25;4.75;;;;;;;9.90;100.00;97901.16;4982313;28;20764;-80
2023/09/26 06:23:33;;;;;;;5.25;4.65;;;;;;;9.96;100.00;97897.59;4982274;28;20400;-81
2023/09/26 06:26:00;;;;;;;5.07;4.28;;;;;;;10.05;100.00;97902.28;4981889;28;20419;-80
2023/09/26 06:28:27;;;;;;;4.40;4.00;;;;;;;10.15;100.00;97899.00;4982120;28;20964;-80
2023/09/26 06:30:53;;;;;;;4.68;4.13;;;;;;;10.25;100.00;97898.44;4981698;28;20420;-80
2023/09/26 06:33:20;;;;;;;7.82;5.20;;;;;;;10.33;100.00;97903.34;4981832;28;20832;-81
2023/09/26 06:35:46;;;;;;;8.68;5.95;;;;;;;10.42;100.00;97905.41;4982316;28;20404;-79
2023/09/26 06:38:12;;;;;;;6.63;5.03;;;;;;;10.52;100.00;97912.72;4982633;28;20490;-78
2023/09/26 06:40:39;;;;;;;5.97;4.78;;;;;;;10.65;100.00;97908.97;4982538;28;20412;-81
2023/09/26 06:43:05;;;;;;;5.20;4.18;;;;;;;10.75;100.00;97907.28;4982998;28;20424;-81
2023/09/26 06:45:31;;;;;;;5.03;4.20;;;;;;;10.88;100.00;97908.84;4982502;28;20809;-81
2023/09/26 06:47:58;;;;;;;4.65;3.63;;;;;;;11.00;100.00;97912.22;4983444;28;20936;-80
2023/09/26 06:50:25;;;;;;;4.20;3.50;;;;;;;11.14;100.00;97910.03;4982701;28;20492;-81
2023/09/26 06:52:52;;;;;;;4.50;3.78;;;;;;;11.29;100.00;97912.13;4983547;28;20492;-80
2023/09/26 06:55:18;;;;;;;4.47;3.13;;;;;;;11.40;100.00;97909.38;4983595;28;20565;-80
2023/09/26 06:57:44;;;;;;;4.35;3.08;;;;;;;11.51;100.00;97908.47;4986146;28;20947;-80
2023/09/26 07:00:13;;;;;;;3.63;3.17;;;;;;;11.60;100.00;97909.66;4992512;28;20423;-79
2023/09/26 07:02:42;;;;;;;3.75;2.97;;;;;;;11.68;100.00;97904.97;4992770;28;20416;-80
2023/09/26 07:05:08;;;;;;;3.45;3.03;;;;;;;11.75;100.00;97908.28;4992970;28;20412;-79
2023/09/26 07:07:36;;;;;;;4.25;2.90;;;;;;;11.80;100.00;97903.84;4993377;28;20475;-79
2023/09/26 07:10:03;;;;;;;3.78;3.05;;;;;;;11.86;100.00;97907.38;4982753;28;20422;-80
2023/09/26 07:12:30;;;;;;;3.80;3.17;;;;;;;11.89;100.00;97902.38;4981942;28;20524;-81
2023/09/26 07:14:56;;;;;;;3.33;2.93;;;;;;;11.95;100.00;97897.97;4981615;28;20400;-80
2023/09/26 07:17:22;;;;;;;3.13;2.63;;;;;;;12.00;100.00;97898.00;4981894;28;20860;-81
2023/09/26 07:19:49;;;;;;;4.35;3.08;;;;;;;12.03;100.00;97898.31;4981707;28;20527;-80
2023/09/26 07:22:16;;;;;;;3.45;2.80;;;;;;;12.10;100.00;97892.84;4982250;28;20756;-80
2023/09/26 07:24:47;;;;;;;4.28;3.00;;;;;;;12.19;100.00;97895.81;4983388;28;20404;-81
2023/09/26 07:27:13;;;;;;;4.00;2.97;;;;;;;12.27;100.00;97887.44;4982807;28;20404;-81
2023/09/26 07:29:39;;;;;;;3.95;2.97;;;;;;;12.37;100.00;97895.50;4981828;28;20416;-80
2023/09/26 07:32:05;;;;;;;3.50;3.00;;;;;;;12.51;100.00;97895.91;4983079;28;20495;-80
2023/09/26 07:34:31;;;;;;;4.68;3.15;;;;;;;12.63;100.00;97891.25;4982848;28;20415;-78
2023/09/26 07:36:58;;;;;;;3.90;3.10;;;;;;;12.76;100.00;97894.31;4983672;28;20411;-81
2023/09/26 07:39:24;;;;;;;4.30;3.30;;;;;;;12.89;100.00;97890.41;4983053;28;20471;-80
2023/09/26 07:41:51;;;;;;;4.65;3.30;;;;;;;13.01;100.00;97887.56;4984775;28;20396;-81
2023/09/26 07:44:17;;;;;;;3.88;3.40;;;;;;;13.13;100.00;97890.91;4982696;28;20404;-81
2023/09/26 07:46:44;;;;;;;3.58;3.08;;;;;;;13.27;100.00;97893.94;4982278;28;20408;-81
2023/09/26 07:49:10;;;;;;;3.93;3.13;;;;;;;13.39;100.00;97902.50;4982850;28;20443;-78
2023/09/26 07:51:36;;;;;;;3.60;2.95;;;;;;;13.53;100.00;97898.38;4981635;28;20424;-80
2023/09/26 07:54:04;;;;;;;5.32;3.30;;;;;;;13.66;100.00;97899.75;4981156;28;20416;-82
2023/09/26 07:56:30;;;;;;;3.90;2.97;;;;;;;13.79;100.00;97900.09;4981788;28;20415;-80
2023/09/26 07:58:58;;;;;;;4.35;3.17;;;;;;;13.96;100.00;97902.56;4981768;28;20396;-81
2023/09/26 08:01:25;;;;;;;5.07;3.50;;;;;;;14.11;100.00;97901.81;4982051;28;20489;-81
2023/09/26 08:03:51;;;;;;;3.33;2.80;;;;;;;14.27;100.00;97895.50;4981800;28;20415;-81
2023/09/26 08:06:17;;;;;;;4.18;3.05;;;;;;;14.45;100.00;97895.03;4982303;28;20396;-83
2023/09/26 08:08:43;;;;;;;4.63;3.30;;;;;;;14.66;100.00;97899.31;4981899;28;20451;-81
2023/09/26 08:11:11;;;;;;;5.55;3.28;;;;;;;14.93;100.00;97896.44;4983207;28;20483;-79
2023/09/26 08:13:39;;;;;;;5.93;3.08;;;;;;;15.26;100.00;97891.63;4977541;28;20483;-79
2023/09/26 08:16:07;;;;;;;4.80;2.78;;;;;;;15.62;100.00;97887.06;4975358;28;20411;-81
2023/09/26 08:18:33;;;;;;;4.90;2.80;;;;;;;15.99;100.00;97884.00;4973740;28;20757;-83
2023/09/26 08:20:59;;;;;;;5.05;3.22;;;;;;;16.37;100.00;97879.81;4972330;28;20412;-81
2023/09/26 08:23:25;;;;;;;4.33;3.17;;;;;;;16.75;100.00;97884.41;4972042;28;20415;-82
2023/09/26 08:25:55;;;;;;;4.72;3.17;;;;;;;17.11;100.00;97881.44;4973551;28;20426;-83
2023/09/26 08:28:22;;;;;;;6.15;2.90;;;;;;;17.37;100.00;97878.25;4973523;28;20511;-83
2023/09/26 08:30:48;;;;;;;3.50;2.80;;;;;;;17.59;100.00;97883.13;4973649;28;20491;-82
2023/09/26 08:33:15;;;;;;;6.65;3.80;;;;;;;17.75;100.00;97881.09;4973974;28;20435;-83
2023/09/26 08:35:41;;;;;;;4.97;3.20;;;;;;;17.86;100.00;97884.47;4978611;28;20400;-83
2023/09/26 08:38:08;;;;;;;5.93;3.30;;;;;;;17.89;100.00;97874.00;4980224;28;20408;-81
2023/09/26 08:40:34;;;;;;;5.93;3.03;;;;;;;17.92;100.00;97878.78;4980938;28;20436;-82
2023/09/26 08:43:03;;;;;;;5.63;3.10;;;;;;;17.97;100.00;97880.59;4982492;28;20407;-81
2023/09/26 08:45:29;;;;;;;6.45;3.25;;;;;;;18.04;100.00;97876.47;4980069;28;20400;-82
2023/09/26 08:47:57;;;;;;;5.93;3.13;;;;;;;18.09;100.00;97876.44;4975179;28;20628;-80
2023/09/26 08:50:26;;;;;;;4.88;3.17;;;;;;;18.12;100.00;97869.69;4974037;28;20416;-80
2023/09/26 08:52:52;;;;;;;4.25;3.20;;;;;;;18.15;100.00;97875.28;4974990;28;20400;-82
2023/09/26 08:55:19;;;;;;;3.95;2.80;;;;;;;18.17;100.00;97875.78;4975145;28;20888;-82
2023/09/26 08:57:48;;;;;;;5.70;3.05;;;;;;;18.18;100.00;97874.72;4975291;28;20776;-82
2023/09/26 09:00:15;;;;;;;5.23;3.07;;;;;;;18.18;100.00;97877.38;4975823;28;20400;-80
2023/09/26 09:02:41;;;;;;;3.80;3.17;;;;;;;18.12;100.00;97870.47;4976534;28;20455;-83
2023/09/26 09:05:09;;;;;;;5.60;3.00;;;;;;;18.09;100.00;97872.94;4975560;28;20851;-81
2023/09/26 09:07:39;;;;;;;3.65;2.28;;;;;;;18.09;100.00;97870.28;4976330;28;20447;-82
2023/09/26 09:10:07;;;;;;;2.30;2.10;;;;;;;18.10;100.00;97867.31;4979011;28;20424;-83
2023/09/26 09:12:34;;;;;;;3.20;2.40;;;;;;;18.14;100.00;97868.31;4975678;28;20506;-83
2023/09/26 09:15:00;;;;;;;5.15;2.90;;;;;;;18.18;100.00;97871.22;4976587;28;20405;-82
2023/09/26 09:17:38;;;;;;;4.38;2.17;;;;;;;18.25;100.00;97868.19;4976164;28;20400;-82
2023/09/26 09:20:04;;;;;;;3.83;2.55;;;;;;;18.32;100.00;97863.28;4976341;28;20411;-82
2023/09/26 09:22:31;;;;;;;3.03;2.27;;;;;;;18.43;100.00;97859.34;4978453;28;20431;-83
2023/09/26 09:24:59;;;;;;;2.80;2.08;;;;;;;18.56;100.00;97858.69;4978607;28;20411;-83
2023/09/26 09:27:29;;;;;;;3.88;2.17;;;;;;;18.72;100.00;97853.88;4979558;28;20407;-82
2023/09/26 09:30:04;;;;;;;5.18;2.60;;;;;;;18.91;100.00;97858.13;4977393;28;20424;-84
2023/09/26 09:32:31;;;;;;;3.13;2.13;;;;;;;19.10;100.00;97857.25;4978087;28;20400;-81
2023/09/26 09:34:57;;;;;;;3.13;2.28;;;;;;;19.25;100.00;97859.69;4974426;28;20554;-84
2023/09/26 09:37:23;;;;;;;9.55;4.55;;;;;;;19.31;100.00;97855.84;4972467;28;20808;-83
2023/09/26 09:39:50;;;;;;;4.45;3.08;;;;;;;19.45;100.00;97856.66;4972380;28;20446;-84
2023/09/26 09:42:19;;;;;;;3.13;2.60;;;;;;;19.56;100.00;97859.97;4972135;28;20401;-84
2023/09/26 09:44:45;;;;;;;6.17;3.77;;;;;;;19.58;100.00;97857.78;4972308;28;20868;-82
2023/09/26 09:47:14;;;;;;;4.38;3.10;;;;;;;19.69;100.00;97856.50;4972256;28;20403;-83
2023/09/26 09:49:44;;;;;;;4.60;2.80;;;;;;;19.74;100.00;97858.28;4972739;28;20975;-81
2023/09/26 09:52:12;;;;;;;4.10;2.80;;;;;;;19.84;100.00;97844.66;4972251;28;20479;-79
2023/09/26 09:54:42;;;;;;;3.60;2.50;;;;;;;20.07;100.00;97849.78;4969789;28;20892;-80
2023/09/26 09:57:10;;;;;;;10.35;4.45;;;;;;;20.24;100.00;97851.88;4970144;28;20400;-80
2023/09/26 09:59:39;;;;;;;6.63;3.50;;;;;;;20.54;100.00;97841.56;4973115;28;20464;-84
2023/09/26 10:02:05;;;;;;;7.33;4.00;;;;;;;20.79;100.00;97846.34;4975437;28;20829;-83
2023/09/26 10:04:34;;;;;;;4.18;3.00;;;;;;;21.08;100.00;97845.91;4978009;28;20424;-81
2023/09/26 10:07:00;;;;;;;6.28;3.10;;;;;;;21.30;100.00;97837.03;4977622;28;20773;-81
2023/09/26 10:09:29;;;;;;;6.15;3.15;;;;;;;21.48;100.00;97838.72;4977720;28;20408;-83
2023/09/26 10:11:56;;;;;;;4.90;3.00;;;;;;;21.53;100.00;97831.28;4979777;28;20407;-83
2023/09/26 10:14:23;;;;;;;6.45;2.88;;;;;;;21.51;100.00;97830.78;4977076;28;20467;-82
2023/09/26 10:16:53;;;;;;;5.22;2.47;;;;;;;21.42;100.00;97832.69;4975349;28;20865;-81
2023/09/26 10:19:21;;;;;;;4.27;2.27;;;;;;;21.34;100.00;97835.31;4975186;28;20472;-81
2023/09/26 10:21:47;;;;;;;4.20;2.30;;;;;;;21.26;100.00;97830.69;4975592;28;20764;-82
2023/09/26 10:24:26;;;;;;;2.53;2.00;;;;;;;21.19;100.00;97829.25;4975797;28;20449;-82
2023/09/26 10:26:53;;;;;;;4.47;2.73;;;;;;;21.04;100.00;97818.81;4976231;28;20412;-84
2023/09/26 10:29:22;;;;;;;3.88;2.35;;;;;;;21.01;100.00;97821.31;4974349;28;20436;-83
2023/09/26 10:31:53;;;;;;;3.88;2.58;;;;;;;21.01;100.00;97810.56;4974559;28;20396;-83
2023/09/26 10:34:22;;;;;;;7.88;2.13;;;;;;;21.10;100.00;97816.78;4975945;28;20487;-83
2023/09/26 10:36:48;;;;;;;10.45;3.58;;;;;;;21.09;100.00;97813.31;4975059;28;20405;-82
2023/09/26 10:39:14;;;;;;;3.88;2.70;;;;;;;21.21;100.00;97810.84;4978733;28;20483;-84
2023/09/26 10:41:40;;;;;;;2.90;2.20;;;;;;;21.29;100.00;97816.59;4974308;28;20528;-83
2023/09/26 10:44:07;;;;;;;3.25;2.08;;;;;;;21.38;100.00;97804.75;4974586;28;20407;-84
2023/09/26 10:46:33;;;;;;;7.10;2.70;;;;;;;21.48;100.00;97809.09;4974532;28;20411;-84
2023/09/26 10:49:01;;;;;;;2.40;1.77;;;;;;;21.60;100.00;97798.50;4975082;28;20404;-83
2023/09/26 10:51:29;;;;;;;3.22;1.83;;;;;;;21.67;100.00;97804.22;4975334;28;20897;-83
2023/09/26 10:53:56;;;;;;;2.78;1.85;;;;;;;21.76;100.00;97798.88;4976345;28;20428;-84
2023/09/26 10:56:23;;;;;;;2.83;1.58;;;;;;;21.82;100.00;97795.72;4976508;28;20422;-83
2023/09/26 10:58:53;;;;;;;3.78;2.10;;;;;;;21.91;100.00;97798.44;4976614;28;20869;-83
2023/09/26 11:01:19;;;;;;;3.08;1.70;;;;;;;21.91;100.00;97785.75;4980096;28;20412;-83
2023/09/26 11:03:46;;;;;;;2.10;1.48;;;;;;;22.01;100.00;97798.16;4977070;28;20406;-81
2023/09/26 11:06:14;;;;;;;3.70;1.98;;;;;;;21.86;100.00;97793.19;4976738;28;20403;-83
2023/09/26 11:08:40;;;;;;;2.83;1.70;;;;;;;21.94;100.00;97797.81;4976952;28;20717;-82
2023/09/26 11:11:08;;;;;;;5.50;1.70;;;;;;;21.66;100.00;97788.38;4977765;28;20412;-83
2023/09/26 11:13:34;;;;;;;2.78;1.77;;;;;;;21.61;100.00;97782.03;4976865;28;20397;-83
2023/09/26 11:16:00;;;;;;;1.73;1.30;;;;;;;21.63;100.00;97784.41;4982236;28;20855;-82
2023/09/26 11:18:26;;;;;;;1.65;1.30;;;;;;;22.01;100.00;97779.31;4978928;28;20407;-81
2023/09/26 11:20:53;;;;;;;1.57;1.20;;;;;;;22.12;100.00;97793.25;4974137;28;20404;-83
2023/09/26 11:26:16;;;;;;;1.50;1.10;;;;;;;22.28;100.00;97784.38;5089572;28;20398;-79
2023/09/26 11:28:42;;;;;;;2.15;1.20;;;;;;;22.63;100.00;97782.47;5068845;28;20507;-84